Time;durP1;ratioP1;P1;durP2;ratioP2;P2;SDS_P1;SDS_P2;PMS_P1;PMS_P2;Temp;Humidity;BMP_temperature;BMP_pressure;BME280_temperature;BME280_humidity;BME280_pressure;Samples;Min_cycle;Max_cycle;Signal;HPM_P1;HPM_P2
2023/01/09 00:01:11;;;;;;;4.53;2.20;;;;;;;;;;6217005;23;20032;-71
2023/01/09 00:03:37;;;;;;;4.60;2.03;;;;;;;;;;6217467;23;20940;-75
2023/01/09 00:06:03;;;;;;;9.93;2.08;;;;;;;;;;6216681;23;20016;-72
2023/01/09 00:09:04;;;;;;;5.72;2.00;;;;;;;;;;6216496;23;20001;-71
2023/01/09 00:12:08;;;;;;;6.90;2.10;;;;;;;;;;6123544;23;20081;-73
2023/01/09 00:14:59;;;;;;;9.27;2.38;;;;;;;;;;6037227;23;20042;-70
2023/01/09 00:26:36;;;;;;;;;;;;;;;;;;6095475;23;20032;-73
2023/01/09 00:32:53;;;;;;;;;;;;;;;;;;;;;
2023/01/09 00:35:22;;;;;;;7.20;2.05;;;;;;;;;;6063573;23;20014;-74
2023/01/09 00:37:48;;;;;;;5.40;1.80;;;;;;;;;;6149065;23;20339;-74
2023/01/09 00:40:15;;;;;;;4.97;1.90;;;;;;;;;;6215871;23;20309;-73
2023/01/09 00:42:43;;;;;;;5.68;1.98;;;;;;;;;;6215758;23;20004;-71
2023/01/09 00:45:13;;;;;;;4.25;2.15;;;;;;;;;;6215528;23;20092;-72
2023/01/09 00:47:43;;;;;;;4.75;2.00;;;;;;;;;;6215575;23;20322;-70
2023/01/09 00:50:16;;;;;;;11.80;2.17;;;;;;;;;;6188491;23;20305;-74
2023/01/09 00:52:43;;;;;;;8.05;2.05;;;;;;;;;;6215460;23;20063;-74
2023/01/09 00:55:10;;;;;;;5.18;1.90;;;;;;;;;;6215285;23;20011;-71
2023/01/09 00:57:36;;;;;;;8.70;2.22;;;;;;;;;;6215313;23;20007;-72
2023/01/09 01:00:03;;;;;;;4.20;2.28;;;;;;;;;;6215451;23;20008;-72
2023/01/09 01:02:29;;;;;;;6.93;2.40;;;;;;;;;;6215378;23;20068;-72
2023/01/09 01:07:41;;;;;;;8.07;2.53;;;;;;;;;;6215477;23;20051;-74
2023/01/09 01:10:15;;;;;;;4.60;1.90;;;;;;;;;;6215465;23;20489;-72
2023/01/09 01:12:41;;;;;;;5.93;2.30;;;;;;;;;;6215298;23;20458;-73
2023/01/09 01:15:08;;;;;;;4.03;1.80;;;;;;;;;;6215422;23;20000;-74
2023/01/09 01:17:35;;;;;;;6.85;2.25;;;;;;;;;;6215365;23;20327;-75
2023/01/09 01:20:01;;;;;;;4.40;1.90;;;;;;;;;;6215251;23;20008;-76
2023/01/09 01:22:27;;;;;;;8.95;2.50;;;;;;;;;;6215482;23;20366;-75
2023/01/09 01:24:53;;;;;;;5.75;2.05;;;;;;;;;;6215085;23;20008;-75
2023/01/09 01:27:19;;;;;;;4.65;1.83;;;;;;;;;;6222171;23;20453;-75
2023/01/09 01:29:46;;;;;;;5.18;2.08;;;;;;;;;;6245706;23;20020;-76
2023/01/09 01:32:12;;;;;;;5.85;2.72;;;;;;;;;;6245814;23;20491;-75
2023/01/09 01:34:38;;;;;;;6.18;2.22;;;;;;;;;;6245532;23;20058;-75
2023/01/09 01:37:05;;;;;;;4.15;2.58;;;;;;;;;;6246125;23;20000;-74
2023/01/09 01:39:31;;;;;;;5.65;2.15;;;;;;;;;;6246146;23;20000;-74
2023/01/09 01:41:57;;;;;;;6.25;2.78;;;;;;;;;;6246270;23;20074;-72
2023/01/09 01:44:42;;;;;;;5.03;2.33;;;;;;;;;;6246114;23;20031;-74
2023/01/09 01:47:16;;;;;;;3.78;2.00;;;;;;;;;;6246292;23;20009;-75
2023/01/09 01:49:57;;;;;;;5.70;2.20;;;;;;;;;;6246041;23;20007;-71
2023/01/09 01:52:24;;;;;;;6.18;2.40;;;;;;;;;;6245345;23;20027;-73
2023/01/09 01:58:01;;;;;;;5.07;2.03;;;;;;;;;;6063912;23;20921;-74
2023/01/09 02:06:44;;;;;;;6.22;2.22;;;;;;;;;;6067283;23;20097;-75
2023/01/09 02:09:56;;;;;;;3.70;1.65;;;;;;;;;;6067772;23;20014;-72
2023/01/09 02:15:42;;;;;;;4.72;1.95;;;;;;;;;;6045519;23;20015;-74
2023/01/09 02:18:25;;;;;;;5.18;2.10;;;;;;;;;;6021529;23;20327;-74
2023/01/09 02:21:03;;;;;;;3.85;1.73;;;;;;;;;;6072947;23;20505;-75
2023/01/09 02:23:43;;;;;;;2.95;1.90;;;;;;;;;;6247469;23;20355;-74
2023/01/09 02:26:12;;;;;;;4.32;1.90;;;;;;;;;;6220293;23;20342;-75
2023/01/09 02:28:51;;;;;;;4.45;1.92;;;;;;;;;;6247052;23;20087;-75
2023/01/09 02:31:52;;;;;;;4.40;1.92;;;;;;;;;;6247157;23;20029;-73
2023/01/09 02:34:26;;;;;;;8.02;2.20;;;;;;;;;;6154420;23;20437;-74
2023/01/09 02:36:52;;;;;;;10.25;1.77;;;;;;;;;;6233172;23;20004;-74
2023/01/09 02:39:32;;;;;;;5.40;1.67;;;;;;;;;;6247050;23;20075;-74
2023/01/09 02:42:05;;;;;;;4.55;1.70;;;;;;;;;;6247236;23;20309;-75
2023/01/09 02:44:33;;;;;;;3.70;1.67;;;;;;;;;;6246208;23;20000;-75
2023/01/09 02:47:00;;;;;;;5.68;1.63;;;;;;;;;;6247242;23;20106;-73
2023/01/09 02:49:27;;;;;;;4.53;2.00;;;;;;;;;;6246964;23;20423;-75
2023/01/09 02:51:55;;;;;;;4.43;1.55;;;;;;;;;;6246972;23;20466;-76
2023/01/09 02:54:47;;;;;;;2.72;1.33;;;;;;;;;;6245134;23;20066;-76
2023/01/09 02:57:13;;;;;;;3.67;1.58;;;;;;;;;;6241476;23;20043;-74
2023/01/09 02:59:53;;;;;;;3.20;1.60;;;;;;;;;;6247158;23;19996;-74
2023/01/09 03:02:23;;;;;;;2.45;1.60;;;;;;;;;;6247138;23;20326;-75
2023/01/09 03:05:00;;;;;;;3.40;1.52;;;;;;;;;;6246815;23;20449;-75
2023/01/09 03:07:26;;;;;;;3.03;1.35;;;;;;;;;;6246794;23;20156;-75
2023/01/09 03:09:56;;;;;;;2.38;1.02;;;;;;;;;;6247041;23;19996;-74
2023/01/09 03:12:23;;;;;;;4.97;1.42;;;;;;;;;;6246356;23;20058;-75
2023/01/09 03:14:51;;;;;;;2.25;1.10;;;;;;;;;;6219839;23;20004;-76
2023/01/09 03:17:21;;;;;;;2.47;1.15;;;;;;;;;;6246607;23;20011;-74
2023/01/09 03:19:48;;;;;;;2.63;1.25;;;;;;;;;;6246734;23;19992;-76
2023/01/09 03:22:14;;;;;;;4.32;1.40;;;;;;;;;;6247218;23;20000;-74
2023/01/09 03:24:41;;;;;;;2.03;1.20;;;;;;;;;;6247336;23;20042;-75
2023/01/09 03:27:08;;;;;;;3.40;1.52;;;;;;;;;;6247282;23;20015;-74
2023/01/09 03:29:34;;;;;;;2.67;1.50;;;;;;;;;;6247396;23;20019;-76
2023/01/09 03:35:31;;;;;;;5.43;1.50;;;;;;;;;;6096206;23;20013;-75
2023/01/09 03:53:16;;;;;;;3.05;1.20;;;;;;;;;;6124945;23;20046;-74
2023/01/09 03:58:52;;;;;;;2.13;1.10;;;;;;;;;;6037445;23;20006;-75
2023/01/09 04:01:30;;;;;;;2.63;1.15;;;;;;;;;;6242967;23;20008;-75
2023/01/09 04:03:57;;;;;;;1.60;0.98;;;;;;;;;;6246376;23;20331;-74
2023/01/09 04:06:23;;;;;;;1.10;0.73;;;;;;;;;;6246441;23;20346;-75
2023/01/09 04:08:49;;;;;;;2.30;0.82;;;;;;;;;;6246631;23;20327;-75
2023/01/09 04:11:16;;;;;;;3.78;0.80;;;;;;;;;;6245812;23;20035;-75
2023/01/09 04:13:44;;;;;;;4.93;1.08;;;;;;;;;;6245927;23;20335;-75
2023/01/09 04:16:10;;;;;;;1.08;0.70;;;;;;;;;;6246272;23;20007;-74
2023/01/09 04:18:36;;;;;;;1.70;0.77;;;;;;;;;;6246261;23;20363;-75
2023/01/09 04:21:02;;;;;;;2.50;1.00;;;;;;;;;;6244575;23;20319;-75
2023/01/09 04:23:28;;;;;;;2.08;0.85;;;;;;;;;;6245968;23;20004;-75
2023/01/09 04:25:54;;;;;;;1.35;0.93;;;;;;;;;;6245879;23;20427;-73
2023/01/09 04:28:20;;;;;;;1.30;1.00;;;;;;;;;;6244076;22;20439;-75
2023/01/09 04:30:46;;;;;;;2.83;0.98;;;;;;;;;;6246080;23;20004;-75
2023/01/09 04:33:12;;;;;;;3.05;1.25;;;;;;;;;;6245668;23;20431;-76
2023/01/09 04:35:39;;;;;;;2.85;1.15;;;;;;;;;;6246003;23;20004;-74
2023/01/09 04:38:05;;;;;;;3.40;1.02;;;;;;;;;;6246218;23;20000;-74
2023/01/09 04:40:31;;;;;;;2.08;0.90;;;;;;;;;;6245670;23;20446;-74
2023/01/09 04:42:57;;;;;;;1.05;0.95;;;;;;;;;;6246015;23;20023;-75
2023/01/09 04:45:23;;;;;;;1.58;1.02;;;;;;;;;;6245926;23;20549;-75
2023/01/09 04:47:49;;;;;;;3.38;1.00;;;;;;;;;;6245790;23;19996;-75
2023/01/09 04:50:15;;;;;;;2.17;0.95;;;;;;;;;;6245881;23;20461;-75
2023/01/09 04:52:41;;;;;;;2.17;1.00;;;;;;;;;;6245767;23;20003;-75
2023/01/09 04:55:08;;;;;;;2.30;1.00;;;;;;;;;;6245489;23;20031;-75
2023/01/09 04:57:34;;;;;;;5.03;1.13;;;;;;;;;;6245347;23;20000;-75
2023/01/09 05:00:01;;;;;;;1.38;0.90;;;;;;;;;;6245898;23;20373;-75
2023/01/09 05:02:27;;;;;;;1.58;0.98;;;;;;;;;;6245867;23;20004;-74
2023/01/09 05:04:53;;;;;;;2.38;1.17;;;;;;;;;;6246529;23;20395;-75
2023/01/09 05:07:19;;;;;;;1.20;0.80;;;;;;;;;;6246374;23;20080;-73
2023/01/09 05:09:46;;;;;;;2.75;1.23;;;;;;;;;;6246582;23;20005;-75
2023/01/09 05:12:12;;;;;;;2.83;1.30;;;;;;;;;;6246404;23;20004;-74
2023/01/09 05:14:38;;;;;;;4.40;1.05;;;;;;;;;;6246752;23;20007;-74
2023/01/09 05:33:04;;;;;;;;;;;;;;;;;;5925138;24;20041;-75
2023/01/09 05:36:16;;;;;;;;;;;;;;;;;;;;;
2023/01/09 05:41:46;;;;;;;1.38;0.70;;;;;;;;;;5924742;24;20459;-74
2023/01/09 05:44:13;;;;;;;1.20;0.75;;;;;;;;;;5910105;24;20013;-74
2023/01/09 05:46:39;;;;;;;1.23;1.00;;;;;;;;;;6107172;23;20390;-75
2023/01/09 05:49:05;;;;;;;3.65;0.75;;;;;;;;;;6212639;23;20388;-74
2023/01/09 05:51:32;;;;;;;4.53;0.70;;;;;;;;;;6238898;23;20423;-75
2023/01/09 05:53:58;;;;;;;2.35;0.80;;;;;;;;;;6245704;23;20071;-75
2023/01/09 05:56:25;;;;;;;2.38;1.00;;;;;;;;;;6245631;23;20356;-75
2023/01/09 05:58:51;;;;;;;4.43;0.75;;;;;;;;;;6245557;23;20371;-73
2023/01/09 06:01:17;;;;;;;1.23;0.90;;;;;;;;;;6245227;23;20004;-75
2023/01/09 06:03:43;;;;;;;2.28;0.90;;;;;;;;;;6245207;23;20331;-74
2023/01/09 06:06:09;;;;;;;3.15;0.90;;;;;;;;;;6245297;23;20043;-75
2023/01/09 06:08:35;;;;;;;3.25;0.85;;;;;;;;;;6245360;23;20004;-75
2023/01/09 06:11:01;;;;;;;2.85;1.20;;;;;;;;;;6245217;23;20427;-75
2023/01/09 06:13:27;;;;;;;2.38;0.88;;;;;;;;;;6244902;23;20063;-75
2023/01/09 06:15:53;;;;;;;1.63;0.77;;;;;;;;;;6243892;23;20497;-74
2023/01/09 06:18:19;;;;;;;2.70;1.08;;;;;;;;;;6245493;23;20071;-75
2023/01/09 06:20:46;;;;;;;2.20;0.90;;;;;;;;;;6245324;23;20445;-75
2023/01/09 06:23:12;;;;;;;4.72;1.08;;;;;;;;;;6244914;23;20001;-75
2023/01/09 06:25:38;;;;;;;4.50;0.90;;;;;;;;;;6245132;23;20501;-75
2023/01/09 06:28:04;;;;;;;2.40;1.10;;;;;;;;;;6231812;23;20013;-76
2023/01/09 06:30:30;;;;;;;1.88;1.00;;;;;;;;;;6215213;23;20056;-74
2023/01/09 06:32:56;;;;;;;2.17;1.05;;;;;;;;;;6214503;23;20043;-75
2023/01/09 06:35:22;;;;;;;3.20;1.17;;;;;;;;;;6216280;23;20499;-75
2023/01/09 06:37:49;;;;;;;2.72;1.17;;;;;;;;;;6215493;23;20076;-75
2023/01/09 06:40:15;;;;;;;2.63;1.10;;;;;;;;;;6214968;23;20428;-76
2023/01/09 06:42:45;;;;;;;1.65;1.10;;;;;;;;;;6214994;23;20001;-75
2023/01/09 06:45:12;;;;;;;2.92;1.20;;;;;;;;;;6214726;23;20004;-75
2023/01/09 06:47:38;;;;;;;3.15;1.20;;;;;;;;;;6215072;23;20004;-75
2023/01/09 06:50:05;;;;;;;7.22;2.50;;;;;;;;;;6217050;23;20004;-75
2023/01/09 06:52:31;;;;;;;6.13;2.33;;;;;;;;;;6218220;23;20027;-74
2023/01/09 06:54:57;;;;;;;4.97;2.20;;;;;;;;;;6218204;23;20079;-75
2023/01/09 06:57:23;;;;;;;3.45;1.75;;;;;;;;;;6217670;23;20281;-75
2023/01/09 06:59:54;;;;;;;4.63;2.10;;;;;;;;;;6217311;23;20332;-74
2023/01/09 07:02:47;;;;;;;6.18;1.90;;;;;;;;;;6217645;23;20052;-75
2023/01/09 07:14:53;;;;;;;5.35;1.80;;;;;;;;;;5926220;24;20377;-74
2023/01/09 07:20:26;;;;;;;4.80;1.60;;;;;;;;;;5898799;24;20457;-75
2023/01/09 07:22:53;;;;;;;10.63;1.88;;;;;;;;;;5898755;24;20006;-70
2023/01/09 07:25:34;;;;;;;5.97;1.67;;;;;;;;;;5971080;24;20023;-75
2023/01/09 07:28:23;;;;;;;12.77;1.92;;;;;;;;;;5978029;23;20099;-75
2023/01/09 07:30:50;;;;;;;6.05;2.25;;;;;;;;;;5975282;24;20401;-75
2023/01/09 07:33:16;;;;;;;9.55;1.90;;;;;;;;;;6031105;23;20426;-74
2023/01/09 07:35:42;;;;;;;3.53;1.40;;;;;;;;;;6127798;23;20320;-75
2023/01/09 07:38:08;;;;;;;6.78;1.67;;;;;;;;;;6246620;23;20327;-74
2023/01/09 07:40:35;;;;;;;6.28;1.88;;;;;;;;;;6244020;23;20379;-71
2023/01/09 07:43:01;;;;;;;5.80;1.70;;;;;;;;;;6245384;23;20004;-74
2023/01/09 07:45:28;;;;;;;8.65;1.73;;;;;;;;;;6246008;23;20000;-75
2023/01/09 07:47:54;;;;;;;7.00;1.85;;;;;;;;;;6161686;23;20031;-76
2023/01/09 07:50:20;;;;;;;12.10;2.67;;;;;;;;;;6245732;23;20425;-75
2023/01/09 07:52:47;;;;;;;14.10;2.40;;;;;;;;;;6244215;23;20026;-75
2023/01/09 07:55:13;;;;;;;16.77;2.95;;;;;;;;;;6245856;23;20003;-75
2023/01/09 07:57:39;;;;;;;9.93;2.17;;;;;;;;;;6244409;23;20000;-75
2023/01/09 08:00:09;;;;;;;10.63;2.40;;;;;;;;;;6245265;23;20004;-75
2023/01/09 08:02:35;;;;;;;11.80;2.60;;;;;;;;;;6245648;23;20066;-75
2023/01/09 08:05:02;;;;;;;12.82;3.20;;;;;;;;;;6245537;23;20435;-75
2023/01/09 08:07:28;;;;;;;14.60;2.85;;;;;;;;;;6244496;23;20430;-75
2023/01/09 08:09:54;;;;;;;17.00;3.83;;;;;;;;;;6246254;23;20058;-74
2023/01/09 08:12:21;;;;;;;13.30;3.75;;;;;;;;;;6245783;23;19996;-75
2023/01/09 08:14:47;;;;;;;15.13;3.38;;;;;;;;;;6245729;23;20011;-75
2023/01/09 08:17:13;;;;;;;9.45;3.10;;;;;;;;;;6246131;23;20034;-76
2023/01/09 08:19:42;;;;;;;6.38;1.85;;;;;;;;;;6244300;23;20004;-76
2023/01/09 08:22:08;;;;;;;9.77;3.50;;;;;;;;;;6245477;23;20005;-76
2023/01/09 08:24:35;;;;;;;10.82;2.70;;;;;;;;;;6244436;23;20360;-76
2023/01/09 08:27:01;;;;;;;15.70;3.45;;;;;;;;;;6245843;23;20012;-76
2023/01/09 08:29:29;;;;;;;17.30;4.88;;;;;;;;;;6218435;22;20093;-74
2023/01/09 08:31:55;;;;;;;21.27;5.85;;;;;;;;;;6216166;23;20005;-73
2023/01/09 08:34:22;;;;;;;17.27;4.10;;;;;;;;;;6216528;23;19996;-75
2023/01/09 08:36:48;;;;;;;20.15;4.03;;;;;;;;;;6214176;23;20300;-75
2023/01/09 08:39:14;;;;;;;15.82;3.78;;;;;;;;;;6215189;23;20005;-74
2023/01/09 08:47:46;;;;;;;26.58;4.28;;;;;;;;;;6216082;23;20071;-70
2023/01/09 09:02:41;;;;;;;22.40;4.40;;;;;;;;;;5883841;24;20012;-70
2023/01/09 09:05:07;;;;;;;21.70;3.85;;;;;;;;;;5897918;24;20014;-69
2023/01/09 09:07:56;;;;;;;27.58;4.15;;;;;;;;;;5929101;24;20407;-70
2023/01/09 09:10:24;;;;;;;19.15;4.28;;;;;;;;;;5927784;23;20011;-75
2023/01/09 09:12:52;;;;;;;25.25;4.38;;;;;;;;;;6088012;23;20090;-75
2023/01/09 09:15:25;;;;;;;19.73;4.03;;;;;;;;;;6094544;23;20038;-74
2023/01/09 09:17:55;;;;;;;27.77;4.20;;;;;;;;;;6199753;23;20008;-75
2023/01/09 09:20:22;;;;;;;27.10;4.70;;;;;;;;;;6216575;23;19996;-74
2023/01/09 09:22:48;;;;;;;29.00;4.85;;;;;;;;;;6215644;23;20301;-70
2023/01/09 09:25:15;;;;;;;18.90;4.32;;;;;;;;;;6215377;23;20039;-70
2023/01/09 09:27:41;;;;;;;27.33;4.78;;;;;;;;;;6220153;23;20008;-70
2023/01/09 09:30:08;;;;;;;28.88;5.20;;;;;;;;;;6245990;23;20008;-70
2023/01/09 09:32:35;;;;;;;26.63;5.18;;;;;;;;;;6245712;23;20004;-70
2023/01/09 09:35:01;;;;;;;15.52;3.35;;;;;;;;;;6245320;23;20430;-70
2023/01/09 09:37:27;;;;;;;23.30;4.13;;;;;;;;;;6245407;23;20406;-70
2023/01/09 09:39:53;;;;;;;23.58;4.78;;;;;;;;;;6245668;23;20032;-69
2023/01/09 09:45:17;;;;;;;32.22;4.03;;;;;;;;;;6247248;23;20099;-75
2023/01/09 09:47:59;;;;;;;23.08;4.28;;;;;;;;;;6247101;23;20016;-74
2023/01/09 09:50:26;;;;;;;16.33;3.33;;;;;;;;;;6246926;23;20000;-75
2023/01/09 09:53:11;;;;;;;18.05;3.67;;;;;;;;;;6245648;23;20004;-76
2023/01/09 09:55:38;;;;;;;29.77;5.05;;;;;;;;;;6245560;23;20076;-76
2023/01/09 09:58:11;;;;;;;25.65;5.05;;;;;;;;;;6243826;23;20004;-75
2023/01/09 10:00:37;;;;;;;27.77;4.72;;;;;;;;;;6245557;23;20015;-75
2023/01/09 10:03:06;;;;;;;22.45;4.22;;;;;;;;;;6244891;23;20006;-74
2023/01/09 10:05:36;;;;;;;19.15;3.97;;;;;;;;;;6245585;23;20000;-75
2023/01/09 10:08:11;;;;;;;18.23;5.10;;;;;;;;;;6245661;23;20000;-75
2023/01/09 10:10:42;;;;;;;16.17;4.32;;;;;;;;;;6245053;23;20008;-73
2023/01/09 10:16:04;;;;;;;26.75;5.68;;;;;;;;;;6245260;23;20015;-75
2023/01/09 10:18:42;;;;;;;23.38;4.40;;;;;;;;;;6244557;23;20017;-70
2023/01/09 10:21:11;;;;;;;10.90;3.72;;;;;;;;;;6242546;23;20627;-69
2023/01/09 10:23:44;;;;;;;23.33;4.88;;;;;;;;;;6244487;23;20008;-70
2023/01/09 10:29:21;;;;;;;14.50;4.35;;;;;;;;;;6179207;23;19919;-70
2023/01/09 10:53:47;;;;;;;20.48;4.90;;;;;;;;;;5981678;23;20008;-73
2023/01/09 10:56:25;;;;;;;17.70;4.20;;;;;;;;;;5981142;23;20019;-76
2023/01/09 10:58:52;;;;;;;17.15;4.30;;;;;;;;;;6052505;23;20350;-76
2023/01/09 11:01:28;;;;;;;15.77;4.13;;;;;;;;;;6141576;23;20379;-75
2023/01/09 11:03:57;;;;;;;14.50;4.50;;;;;;;;;;6216381;23;19997;-73
2023/01/09 11:06:26;;;;;;;20.00;5.20;;;;;;;;;;6216678;23;20036;-75
2023/01/09 11:08:55;;;;;;;15.23;4.55;;;;;;;;;;6216639;23;20451;-74
2023/01/09 11:11:32;;;;;;;20.27;4.63;;;;;;;;;;6216330;23;20322;-75
2023/01/09 11:14:05;;;;;;;22.80;4.90;;;;;;;;;;6216412;23;20001;-75
2023/01/09 11:16:31;;;;;;;17.52;5.35;;;;;;;;;;6216341;23;20051;-73
2023/01/09 11:18:59;;;;;;;20.23;4.80;;;;;;;;;;6216373;23;20043;-73
2023/01/09 11:21:39;;;;;;;13.20;4.35;;;;;;;;;;6216784;23;20005;-75
2023/01/09 11:24:20;;;;;;;19.13;4.15;;;;;;;;;;6216580;23;20416;-76
2023/01/09 11:26:47;;;;;;;18.00;3.58;;;;;;;;;;6214426;23;20320;-74
2023/01/09 11:29:15;;;;;;;16.75;3.83;;;;;;;;;;6216010;23;20353;-71
2023/01/09 11:31:41;;;;;;;21.20;4.53;;;;;;;;;;6216394;23;20457;-73
2023/01/09 11:34:21;;;;;;;10.60;3.30;;;;;;;;;;6215776;23;20071;-74
2023/01/09 11:36:48;;;;;;;17.25;3.08;;;;;;;;;;6216746;23;20003;-69
2023/01/09 11:39:24;;;;;;;16.42;3.58;;;;;;;;;;6216253;23;20337;-72
2023/01/09 11:41:55;;;;;;;17.13;4.10;;;;;;;;;;6215814;23;19997;-70
2023/01/09 11:44:21;;;;;;;10.95;2.90;;;;;;;;;;6216171;23;20001;-70
2023/01/09 11:46:47;;;;;;;14.25;3.38;;;;;;;;;;6215953;23;20016;-71
2023/01/09 11:49:16;;;;;;;11.73;3.15;;;;;;;;;;6215965;23;20001;-70
2023/01/09 11:51:43;;;;;;;12.95;3.03;;;;;;;;;;6216111;23;20028;-71
2023/01/09 11:54:12;;;;;;;15.50;2.53;;;;;;;;;;6216294;23;20007;-72
2023/01/09 11:56:38;;;;;;;19.98;3.00;;;;;;;;;;6189317;23;20005;-70
2023/01/09 11:59:12;;;;;;;17.90;3.30;;;;;;;;;;6216535;23;20005;-70
2023/01/09 12:01:52;;;;;;;12.27;2.80;;;;;;;;;;6216535;23;20001;-70
2023/01/09 12:04:18;;;;;;;13.98;3.63;;;;;;;;;;6215775;23;20024;-71
2023/01/09 12:07:00;;;;;;;15.82;4.18;;;;;;;;;;6190054;23;20041;-71
2023/01/09 12:09:26;;;;;;;18.55;4.70;;;;;;;;;;6216757;23;20005;-70
2023/01/09 12:12:27;;;;;;;15.90;3.63;;;;;;;;;;6216492;23;20324;-72
2023/01/09 12:21:02;;;;;;;;;;;;;;;;;;6067347;23;20038;-70
2023/01/09 12:30:10;;;;;;;15.40;6.38;;;;;;;;;;6037206;23;20020;-70
2023/01/09 12:32:54;;;;;;;12.88;6.55;;;;;;;;;;6092419;23;20085;-69
2023/01/09 12:36:00;;;;;;;16.02;6.75;;;;;;;;;;6094669;23;20351;-70
2023/01/09 12:38:40;;;;;;;20.73;7.47;;;;;;;;;;6051719;23;20337;-69
2023/01/09 12:41:13;;;;;;;14.77;7.50;;;;;;;;;;6094705;23;20003;-69
2023/01/09 12:43:53;;;;;;;21.75;8.25;;;;;;;;;;6116216;23;20386;-69
2023/01/09 12:46:19;;;;;;;16.48;8.10;;;;;;;;;;6215056;23;20316;-69
2023/01/09 12:48:48;;;;;;;14.18;7.75;;;;;;;;;;6215537;23;20404;-70
2023/01/09 12:51:17;;;;;;;15.90;7.75;;;;;;;;;;6215419;23;20059;-71
2023/01/09 12:53:48;;;;;;;20.25;7.60;;;;;;;;;;6215189;23;20027;-70
2023/01/09 12:56:25;;;;;;;18.98;8.48;;;;;;;;;;6214795;23;20001;-70
2023/01/09 12:58:51;;;;;;;20.48;9.63;;;;;;;;;;6215325;23;20004;-70
2023/01/09 13:01:21;;;;;;;21.88;6.75;;;;;;;;;;6215359;23;20336;-70
2023/01/09 13:03:52;;;;;;;21.23;6.95;;;;;;;;;;6215479;23;20008;-71
2023/01/09 13:06:20;;;;;;;16.70;5.97;;;;;;;;;;6215399;23;20466;-70
2023/01/09 13:08:53;;;;;;;12.43;5.60;;;;;;;;;;6215215;23;20000;-70
2023/01/09 13:11:25;;;;;;;18.35;5.95;;;;;;;;;;6215074;23;20001;-71
2023/01/09 13:13:51;;;;;;;;;;;;;;;;;;6213816;23;20008;-70
2023/01/09 13:16:20;;;;;;;18.17;6.18;;;;;;;;;;6215275;23;19907;-70
2023/01/09 13:18:48;;;;;;;16.80;6.13;;;;;;;;;;6213306;23;20447;-71
2023/01/09 13:21:15;;;;;;;20.48;7.25;;;;;;;;;;6212050;23;20004;-76
2023/01/09 13:23:47;;;;;;;19.77;7.55;;;;;;;;;;6213276;23;20007;-73
2023/01/09 13:26:15;;;;;;;20.75;8.13;;;;;;;;;;6215446;23;20431;-74
2023/01/09 13:28:45;;;;;;;15.57;7.85;;;;;;;;;;6215194;22;20431;-72
2023/01/09 13:31:35;;;;;;;13.05;7.88;;;;;;;;;;6215095;23;20000;-76
2023/01/09 13:34:02;;;;;;;14.60;8.75;;;;;;;;;;6215347;23;20071;-78
2023/01/09 13:36:32;;;;;;;13.70;8.85;;;;;;;;;;6215548;23;20004;-79
2023/01/09 13:38:59;;;;;;;18.73;9.85;;;;;;;;;;6214948;23;19996;-77
2023/01/09 13:44:30;;;;;;;20.65;10.93;;;;;;;;;;6215209;23;20407;-77
2023/01/09 13:46:57;;;;;;;20.83;11.10;;;;;;;;;;6188936;23;20012;-70
2023/01/09 13:49:52;;;;;;;22.88;10.65;;;;;;;;;;6215680;23;20003;-70
2023/01/09 13:52:29;;;;;;;25.42;10.52;;;;;;;;;;6215846;23;20024;-70
2023/01/09 13:55:01;;;;;;;17.05;10.93;;;;;;;;;;6215672;23;20068;-70
2023/01/09 14:09:36;;;;;;;22.25;12.75;;;;;;;;;;6096726;23;20021;-70
2023/01/09 14:12:22;;;;;;;25.85;13.05;;;;;;;;;;6096369;23;20370;-70
2023/01/09 14:14:50;;;;;;;19.48;12.07;;;;;;;;;;6095815;23;20373;-71
2023/01/09 14:17:18;;;;;;;16.65;9.70;;;;;;;;;;6096299;23;20006;-69
2023/01/09 14:19:44;;;;;;;13.43;9.05;;;;;;;;;;6095108;23;20003;-75
2023/01/09 14:22:49;;;;;;;24.33;10.70;;;;;;;;;;6095794;23;20007;-70
2023/01/09 14:25:19;;;;;;;21.17;11.60;;;;;;;;;;6087444;23;20342;-69
2023/01/09 14:28:10;;;;;;;28.63;15.85;;;;;;;;;;6206724;23;20012;-70
2023/01/09 14:30:37;;;;;;;32.05;15.73;;;;;;;;;;6246670;23;20446;-70
2023/01/09 14:33:03;;;;;;;24.80;12.48;;;;;;;;;;6247293;23;20331;-70
2023/01/09 14:35:32;;;;;;;15.77;9.93;;;;;;;;;;6247241;23;19996;-70
2023/01/09 14:38:04;;;;;;;25.17;13.07;;;;;;;;;;6247495;23;20005;-70
2023/01/09 14:40:31;;;;;;;14.45;6.85;;;;;;;;;;6195115;23;20330;-68
2023/01/09 14:43:00;;;;;;;13.48;6.13;;;;;;;;;;6246848;23;20004;-69
2023/01/09 14:45:27;;;;;;;11.23;6.13;;;;;;;;;;6246984;23;20046;-69
2023/01/09 14:47:55;;;;;;;10.63;5.97;;;;;;;;;;6246773;23;20486;-79
2023/01/09 14:50:21;;;;;;;10.38;5.25;;;;;;;;;;6246892;23;20041;-75
2023/01/09 14:52:48;;;;;;;14.57;5.60;;;;;;;;;;6246548;23;20083;-69
2023/01/09 14:55:23;;;;;;;15.40;9.18;;;;;;;;;;6219990;23;20007;-69
2023/01/09 14:57:53;;;;;;;12.13;7.97;;;;;;;;;;6246994;23;20488;-70
2023/01/09 15:00:20;;;;;;;12.27;7.05;;;;;;;;;;6246986;23;20488;-70
2023/01/09 15:02:47;;;;;;;8.63;5.93;;;;;;;;;;6246747;23;20057;-77
2023/01/09 15:05:24;;;;;;;10.02;6.60;;;;;;;;;;6245847;23;20488;-76
2023/01/09 15:07:53;;;;;;;12.45;8.02;;;;;;;;;;6219274;22;20012;-70
2023/01/09 15:10:22;;;;;;;15.00;9.25;;;;;;;;;;6245984;23;20482;-70
2023/01/09 15:12:49;;;;;;;18.08;6.80;;;;;;;;;;6246501;23;20000;-77
2023/01/09 15:15:17;;;;;;;9.48;5.20;;;;;;;;;;6246329;23;20427;-77
2023/01/09 15:17:44;;;;;;;16.67;10.23;;;;;;;;;;6246386;23;20418;-74
2023/01/09 15:20:18;;;;;;;8.70;6.07;;;;;;;;;;6246929;23;20028;-76
2023/01/09 15:22:50;;;;;;;8.05;5.78;;;;;;;;;;6246504;23;20007;-77
2023/01/09 15:25:28;;;;;;;10.07;6.10;;;;;;;;;;6246166;23;20019;-75
2023/01/09 15:27:56;;;;;;;8.38;5.93;;;;;;;;;;6246632;23;20019;-69
2023/01/09 15:30:33;;;;;;;12.85;7.03;;;;;;;;;;6245907;23;20123;-70
2023/01/09 15:33:07;;;;;;;10.52;6.35;;;;;;;;;;6220148;23;20114;-77
2023/01/09 15:35:36;;;;;;;12.18;6.63;;;;;;;;;;6247190;23;20004;-79
2023/01/09 15:50:29;;;;;;;15.43;8.30;;;;;;;;;;6007265;23;20133;-79
2023/01/09 15:59:21;;;;;;;8.45;5.82;;;;;;;;;;5996092;23;20015;-78
2023/01/09 16:05:11;;;;;;;4.35;2.50;;;;;;;;;;6210687;23;20047;-78
2023/01/09 16:07:43;;;;;;;6.28;1.73;;;;;;;;;;6244457;23;20374;-76
2023/01/09 16:10:20;;;;;;;2.75;1.10;;;;;;;;;;6246219;23;20370;-69
2023/01/09 16:12:50;;;;;;;2.08;0.80;;;;;;;;;;6245925;23;20318;-78
2023/01/09 16:15:18;;;;;;;3.50;2.05;;;;;;;;;;6246099;23;20386;-77
2023/01/09 16:18:03;;;;;;;9.60;6.63;;;;;;;;;;6246405;23;20327;-74
2023/01/09 16:20:29;;;;;;;5.18;3.67;;;;;;;;;;6246163;23;20394;-75
2023/01/09 16:22:55;;;;;;;11.82;9.00;;;;;;;;;;6245560;23;20000;-74
2023/01/09 16:25:33;;;;;;;3.88;3.10;;;;;;;;;;6245615;23;20300;-75
2023/01/09 16:28:19;;;;;;;4.88;1.25;;;;;;;;;;6245009;23;20342;-73
2023/01/09 16:30:53;;;;;;;1.52;1.00;;;;;;;;;;6245379;23;20457;-73
2023/01/09 16:33:23;;;;;;;3.08;0.90;;;;;;;;;;6245723;23;20004;-77
2023/01/09 16:35:50;;;;;;;1.33;0.77;;;;;;;;;;6245525;23;20477;-73
2023/01/09 16:38:17;;;;;;;0.80;0.70;;;;;;;;;;6245805;23;20415;-74
2023/01/09 16:43:47;;;;;;;0.40;0.30;;;;;;;;;;6246221;23;20091;-71
2023/01/09 16:46:14;;;;;;;3.78;1.05;;;;;;;;;;6245724;23;20146;-74
2023/01/09 16:48:40;;;;;;;1.10;0.40;;;;;;;;;;6245914;23;19996;-72
2023/01/09 16:51:11;;;;;;;1.10;0.40;;;;;;;;;;6245828;23;20366;-74
2023/01/09 16:53:37;;;;;;;1.23;0.65;;;;;;;;;;6219002;23;20050;-76
2023/01/09 16:56:04;;;;;;;8.25;4.28;;;;;;;;;;6245757;23;20439;-74
2023/01/09 16:58:31;;;;;;;4.65;0.85;;;;;;;;;;6245649;23;19996;-75
2023/01/09 17:00:58;;;;;;;1.48;1.30;;;;;;;;;;6245529;23;20015;-73
2023/01/09 17:03:24;;;;;;;1.15;1.05;;;;;;;;;;6245551;23;20026;-73
2023/01/09 17:05:58;;;;;;;1.15;0.73;;;;;;;;;;6245530;23;20083;-72
2023/01/09 17:08:24;;;;;;;1.27;0.95;;;;;;;;;;6245311;23;20331;-73
2023/01/09 17:10:51;;;;;;;1.23;0.65;;;;;;;;;;6246119;23;20010;-75
2023/01/09 17:13:17;;;;;;;1.85;0.45;;;;;;;;;;6246240;23;20004;-76
2023/01/09 17:15:44;;;;;;;1.05;0.60;;;;;;;;;;6246500;23;19996;-76
2023/01/09 17:18:20;;;;;;;1.48;1.10;;;;;;;;;;6246441;23;20000;-75
2023/01/09 17:20:47;;;;;;;6.82;4.30;;;;;;;;;;6218099;23;20007;-78
2023/01/09 17:32:14;;;;;;;2.65;1.40;;;;;;;;;;6123524;23;20041;-75
2023/01/09 17:47:01;;;;;;;2.50;2.13;;;;;;;;;;6146280;23;20471;-69
2023/01/09 17:49:27;;;;;;;2.75;2.00;;;;;;;;;;6140262;23;20013;-69
2023/01/09 17:51:53;;;;;;;4.03;1.45;;;;;;;;;;6213813;23;20339;-70
2023/01/09 17:54:19;;;;;;;2.60;1.85;;;;;;;;;;6245068;23;20000;-70
2023/01/09 17:56:48;;;;;;;5.65;1.50;;;;;;;;;;6245653;23;20369;-69
2023/01/09 17:59:14;;;;;;;0.85;0.75;;;;;;;;;;6245124;23;20000;-70
2023/01/09 18:01:44;;;;;;;2.40;0.65;;;;;;;;;;6245789;23;20351;-69
2023/01/09 18:04:10;;;;;;;1.17;0.50;;;;;;;;;;6245186;23;20058;-70
2023/01/09 18:06:37;;;;;;;1.10;0.70;;;;;;;;;;6244929;23;20010;-73
2023/01/09 18:09:03;;;;;;;0.57;0.40;;;;;;;;;;6243135;23;20382;-72
2023/01/09 18:11:29;;;;;;;1.43;0.50;;;;;;;;;;6244058;23;20320;-73
2023/01/09 18:13:56;;;;;;;1.40;0.47;;;;;;;;;;6242390;23;20015;-74
2023/01/09 18:16:23;;;;;;;0.95;0.50;;;;;;;;;;6242586;23;20027;-70
2023/01/09 18:18:50;;;;;;;3.80;0.53;;;;;;;;;;6245337;23;20442;-72
2023/01/09 18:21:18;;;;;;;0.82;0.50;;;;;;;;;;6245190;23;20003;-71
2023/01/09 18:23:45;;;;;;;1.25;0.60;;;;;;;;;;6244965;23;20008;-72